createdAt,value
2022-07-25T00:01:49.688Z,19.29
2022-07-25T00:04:17.412Z,19.26
2022-07-25T00:06:45.292Z,19.16
2022-07-25T00:09:11.800Z,19.26
2022-07-25T00:11:38.409Z,19.08
2022-07-25T00:14:06.231Z,19.06
2022-07-25T00:16:32.992Z,19.06
2022-07-25T00:18:59.865Z,18.87
2022-07-25T00:21:26.448Z,18.72
2022-07-25T00:23:53.061Z,18.80
2022-07-25T00:26:19.695Z,18.88
2022-07-25T00:28:48.570Z,18.90
2022-07-25T00:31:15.285Z,18.90
2022-07-25T00:33:41.838Z,18.67
2022-07-25T00:36:09.447Z,18.88
2022-07-25T00:38:36.029Z,18.75
2022-07-25T00:41:03.727Z,18.72
2022-07-25T00:43:30.255Z,18.87
2022-07-25T00:45:58.794Z,18.73
2022-07-25T00:48:29.836Z,18.68
2022-07-25T00:50:56.945Z,18.74
2022-07-25T00:53:26.060Z,18.73
2022-07-25T00:55:53.104Z,18.69
2022-07-25T00:58:19.732Z,18.67
2022-07-25T01:00:47.432Z,18.58
2022-07-25T01:03:14.813Z,18.30
2022-07-25T01:05:41.810Z,18.31
2022-07-25T01:08:09.205Z,18.54
2022-07-25T01:10:35.897Z,18.64
2022-07-25T01:13:02.684Z,18.44
2022-07-25T01:15:29.573Z,18.27
2022-07-25T01:17:56.181Z,18.13
2022-07-25T01:20:27.321Z,18.20
2022-07-25T01:22:54.895Z,18.09
2022-07-25T01:25:22.083Z,18.05
2022-07-25T01:27:54.904Z,18.11
2022-07-25T01:30:23.643Z,18.22
2022-07-25T01:32:50.236Z,-145.39
2022-07-25T01:35:16.779Z,-145.39
2022-07-25T01:37:46.026Z,-145.39
2022-07-25T01:40:13.815Z,-145.39
2022-07-25T01:42:40.627Z,-145.39
2022-07-25T01:45:07.929Z,-145.39
2022-07-25T01:47:34.735Z,-145.39
2022-07-25T01:50:01.238Z,-145.39
2022-07-25T01:52:27.764Z,-145.39
2022-07-25T01:54:54.234Z,-145.39
2022-07-25T01:57:21.356Z,-145.39
2022-07-25T01:59:49.519Z,-145.39
2022-07-25T02:02:18.243Z,-145.39
2022-07-25T02:04:44.852Z,-145.39
2022-07-25T02:07:11.515Z,-145.39
2022-07-25T02:09:38.091Z,-145.39
2022-07-25T02:12:07.280Z,-145.39
2022-07-25T02:14:33.878Z,-145.39
2022-07-25T02:17:00.515Z,-145.39
2022-07-25T02:19:27.013Z,-145.39
2022-07-25T02:21:55.973Z,-145.39
2022-07-25T02:24:22.460Z,-145.39
2022-07-25T02:26:48.926Z,-145.39
2022-07-25T02:29:15.399Z,-145.39
2022-07-25T02:31:41.957Z,-145.39
2022-07-25T02:34:08.813Z,-145.39
2022-07-25T02:36:35.481Z,-145.39
2022-07-25T02:39:04.809Z,-145.39
2022-07-25T02:41:31.431Z,-145.39
2022-07-25T02:43:57.948Z,-145.39
2022-07-25T02:46:24.530Z,-145.39
2022-07-25T02:48:51.241Z,-145.39
2022-07-25T02:51:20.101Z,-145.39
2022-07-25T02:53:58.064Z,-145.39
2022-07-25T02:56:25.687Z,-145.39
2022-07-25T02:58:52.163Z,-145.39
2022-07-25T03:01:18.838Z,-145.39
2022-07-25T03:03:45.454Z,-145.39
2022-07-25T03:06:14.253Z,-145.39
2022-07-25T03:08:40.732Z,-145.39
2022-07-25T03:11:09.511Z,-145.39
2022-07-25T03:13:35.989Z,-145.39
2022-07-25T03:16:03.063Z,-145.39
2022-07-25T03:18:31.834Z,-145.39
2022-07-25T03:20:58.331Z,-145.39
2022-07-25T03:23:27.101Z,-145.39
2022-07-25T03:25:54.539Z,-145.39
2022-07-25T03:28:21.016Z,-145.39
2022-07-25T03:30:47.511Z,-145.39
2022-07-25T03:33:16.533Z,-145.39
2022-07-25T03:35:45.200Z,-145.39
2022-07-25T03:38:11.838Z,-145.39
2022-07-25T03:40:40.621Z,-145.39
2022-07-25T03:43:07.100Z,-145.39
2022-07-25T03:45:33.671Z,-145.39
2022-07-25T03:48:00.181Z,-145.39
2022-07-25T03:50:26.729Z,-145.39
2022-07-25T03:52:53.296Z,-145.39
2022-07-25T03:55:19.820Z,-145.39
2022-07-25T03:57:49.279Z,-145.39
2022-07-25T04:00:16.381Z,-145.39
2022-07-25T04:02:43.033Z,-145.39
2022-07-25T04:05:10.489Z,-145.39
2022-07-25T04:07:38.217Z,-145.39
2022-07-25T04:10:06.059Z,-145.39
2022-07-25T04:12:35.058Z,-145.39
2022-07-25T04:15:01.689Z,-145.39
2022-07-25T04:17:28.227Z,-145.39
2022-07-25T04:19:54.735Z,-145.39
2022-07-25T04:22:22.291Z,-145.39
2022-07-25T04:24:51.274Z,-145.39
2022-07-25T04:27:17.807Z,-145.39
2022-07-25T04:29:44.280Z,-145.39
2022-07-25T04:32:14.734Z,-145.39
2022-07-25T04:34:44.725Z,-145.39
2022-07-25T04:37:11.263Z,-145.39
2022-07-25T04:39:37.787Z,-145.39
2022-07-25T04:42:04.523Z,-145.39
2022-07-25T04:44:33.996Z,-145.39
2022-07-25T04:47:00.602Z,-145.39
2022-07-25T04:49:27.180Z,-145.39
2022-07-25T04:51:53.726Z,-145.39
2022-07-25T04:54:20.196Z,-145.39
2022-07-25T04:56:49.140Z,-145.39
2022-07-25T04:59:16.448Z,-145.39
2022-07-25T05:01:42.971Z,-145.39
2022-07-25T05:04:09.903Z,-145.39
2022-07-25T05:06:36.731Z,-145.39
2022-07-25T05:09:03.526Z,-145.39
2022-07-25T05:11:29.961Z,-145.39
2022-07-25T05:13:56.499Z,-145.39
2022-07-25T05:16:26.009Z,-145.39
2022-07-25T05:18:52.569Z,-145.39
2022-07-25T05:21:19.037Z,-145.39
2022-07-25T05:23:45.483Z,-145.39
2022-07-25T05:26:14.529Z,-145.39
2022-07-25T05:28:43.362Z,-145.39
2022-07-25T05:31:09.906Z,-145.39
2022-07-25T05:33:36.429Z,-145.39
2022-07-25T05:36:05.312Z,-145.39
2022-07-25T05:38:31.890Z,-145.39
2022-07-25T05:40:58.351Z,-145.39
2022-07-25T05:43:24.807Z,-145.39
2022-07-25T05:45:53.669Z,-145.39
2022-07-25T05:48:20.204Z,-145.39
2022-07-25T05:50:46.664Z,-145.39
2022-07-25T05:53:13.161Z,-145.39
2022-07-25T05:55:41.975Z,-145.39
2022-07-25T05:58:09.587Z,-145.39
2022-07-25T06:00:36.457Z,-145.39
2022-07-25T06:03:03.252Z,-145.39
2022-07-25T06:05:29.773Z,-145.39
2022-07-25T06:07:56.293Z,-145.39
2022-07-25T06:10:23.618Z,-145.39
2022-07-25T06:12:50.206Z,-145.39
2022-07-25T06:15:22.882Z,-145.39
2022-07-25T06:17:54.638Z,-145.39
2022-07-25T06:20:21.273Z,-145.39
2022-07-25T06:22:47.903Z,-145.39
2022-07-25T06:25:15.077Z,-145.39
2022-07-25T06:27:41.737Z,-145.39
2022-07-25T06:30:19.193Z,-145.39
2022-07-25T06:32:49.987Z,-145.39
2022-07-25T06:35:18.012Z,-145.39
2022-07-25T06:37:44.688Z,-145.39
2022-07-25T06:40:11.566Z,-145.39
2022-07-25T06:42:42.973Z,-145.39
2022-07-25T06:45:15.715Z,-145.39
2022-07-25T06:47:43.424Z,-145.39
2022-07-25T06:50:18.469Z,-145.39
2022-07-25T06:52:47.867Z,-145.39
2022-07-25T06:55:15.356Z,-145.39
2022-07-25T06:57:42.837Z,-145.39
2022-07-25T07:00:13.772Z,-145.39
2022-07-25T07:03:01.338Z,-145.39
2022-07-25T07:05:32.079Z,-145.39
2022-07-25T07:07:59.633Z,-145.39
2022-07-25T07:10:27.130Z,-145.39
2022-07-25T07:13:24.577Z,-145.39
2022-07-25T07:15:54.340Z,-145.39
2022-07-25T07:18:23.353Z,-145.39
2022-07-25T07:20:49.935Z,-145.39
2022-07-25T07:23:18.593Z,-145.39
2022-07-25T07:25:47.033Z,-145.39
2022-07-25T07:28:16.730Z,-145.39
2022-07-25T07:33:30.103Z,-145.39
2022-07-25T07:35:57.147Z,-145.39
2022-07-25T07:38:26.849Z,-145.39
2022-07-25T07:40:53.773Z,-145.39
2022-07-25T07:43:29.153Z,-145.39
2022-07-25T07:46:00.866Z,-145.39
2022-07-25T07:48:29.189Z,-145.39
2022-07-25T07:50:55.882Z,-145.39
2022-07-25T07:53:44.844Z,-145.39
2022-07-25T07:56:13.920Z,-145.39
2022-07-25T07:58:42.645Z,-145.39
2022-07-25T08:01:09.221Z,-145.39
2022-07-25T08:03:36.156Z,-145.39
2022-07-25T08:06:03.067Z,-145.39
2022-07-25T08:08:31.599Z,-145.39
2022-07-25T08:10:59.060Z,-145.39
2022-07-25T08:13:28.756Z,-145.39
2022-07-25T08:15:59.954Z,-145.39
2022-07-25T08:18:29.736Z,-145.39
2022-07-25T08:20:56.796Z,-145.39
2022-07-25T08:23:25.257Z,-145.39
2022-07-25T08:25:54.087Z,-145.39
2022-07-25T08:28:20.943Z,-145.39
2022-07-25T08:30:47.911Z,-145.39
2022-07-25T08:33:16.409Z,-145.39
2022-07-25T08:36:01.266Z,-145.39
2022-07-25T08:38:28.835Z,-145.39
2022-07-25T08:40:56.859Z,-145.39
2022-07-25T08:43:23.960Z,-145.39
2022-07-25T08:45:52.952Z,-145.39
2022-07-25T08:48:22.294Z,-145.39
2022-07-25T08:50:49.941Z,-145.39
2022-07-25T08:53:35.310Z,-145.39
2022-07-25T08:56:11.559Z,-145.39
2022-07-25T08:58:41.362Z,-145.39
2022-07-25T09:01:08.361Z,-145.39
2022-07-25T09:03:37.157Z,-145.39
2022-07-25T09:06:20.300Z,-145.39
2022-07-25T09:08:59.006Z,-145.39
2022-07-25T09:11:34.818Z,-145.39
2022-07-25T09:14:15.472Z,-145.39
2022-07-25T09:16:44.916Z,-145.39
2022-07-25T09:19:23.144Z,-145.39
2022-07-25T09:22:07.091Z,-145.39
2022-07-25T09:24:45.204Z,-145.39
2022-07-25T09:27:12.804Z,-145.39
2022-07-25T09:29:42.470Z,-145.39
2022-07-25T09:32:22.662Z,-145.39
2022-07-25T09:34:50.987Z,-145.39
2022-07-25T09:37:20.293Z,-145.39
2022-07-25T09:39:49.663Z,-145.39
2022-07-25T09:42:29.461Z,-145.39
2022-07-25T09:45:03.150Z,-145.39
2022-07-25T09:47:30.855Z,-145.39
2022-07-25T09:49:57.822Z,-145.39
2022-07-25T09:52:24.415Z,-145.39
2022-07-25T09:54:50.996Z,-145.39
2022-07-25T09:57:17.594Z,-145.39
2022-07-25T09:59:44.831Z,-145.39
2022-07-25T10:02:45.397Z,-145.39
2022-07-25T10:05:32.027Z,-145.39
2022-07-25T10:07:59.310Z,-145.39
2022-07-25T10:10:32.616Z,-145.39
2022-07-25T10:13:15.372Z,-145.39
2022-07-25T10:15:42.938Z,-145.39
2022-07-25T10:18:10.075Z,-145.39
2022-07-25T10:20:37.841Z,-145.39
2022-07-25T10:23:05.458Z,-145.39
2022-07-25T10:25:32.161Z,-145.39
2022-07-25T10:28:09.966Z,-145.39
2022-07-25T10:30:38.649Z,-145.39
2022-07-25T10:33:12.302Z,-145.39
2022-07-25T10:35:39.357Z,-145.39
2022-07-25T10:38:06.316Z,-145.39
2022-07-25T10:40:32.775Z,-145.39
2022-07-25T10:43:05.611Z,-145.39
2022-07-25T10:45:42.292Z,-145.39
2022-07-25T10:48:11.284Z,-145.39
2022-07-25T10:50:58.043Z,-145.39
2022-07-25T10:53:40.899Z,-145.39
2022-07-25T10:56:16.122Z,-145.39
2022-07-25T10:58:44.760Z,-145.39
2022-07-25T11:01:14.112Z,-145.39
2022-07-25T11:03:44.983Z,-145.39
2022-07-25T11:06:15.328Z,-145.39
2022-07-25T11:08:43.494Z,-145.39
2022-07-25T11:11:11.520Z,-145.39
2022-07-25T11:13:42.451Z,-145.39
2022-07-25T11:16:09.951Z,-145.39
2022-07-25T11:18:39.535Z,-145.39
2022-07-25T11:21:09.131Z,-145.39
2022-07-25T11:23:35.968Z,-145.39
2022-07-25T11:26:10.733Z,-145.39
2022-07-25T11:28:39.125Z,-145.39
2022-07-25T11:31:05.948Z,-145.39
2022-07-25T11:33:32.794Z,-145.39
2022-07-25T11:36:00.181Z,-145.39
2022-07-25T11:38:27.122Z,-145.39
2022-07-25T11:40:55.987Z,-145.39
2022-07-25T11:43:24.523Z,-145.39
2022-07-25T11:46:02.844Z,-145.39
2022-07-25T11:48:31.925Z,-145.39
2022-07-25T11:50:58.683Z,-145.39
2022-07-25T11:53:26.054Z,-145.39
2022-07-25T11:55:52.877Z,-145.39
2022-07-25T11:58:19.485Z,-145.39
2022-07-25T12:00:48.459Z,-145.39
2022-07-25T12:03:20.391Z,-145.39
2022-07-25T12:05:48.613Z,-145.39
2022-07-25T12:08:25.072Z,-145.39
2022-07-25T12:10:51.792Z,-145.39
2022-07-25T12:13:26.538Z,-145.39
2022-07-25T12:15:53.631Z,-145.39
2022-07-25T12:18:20.156Z,-145.39
2022-07-25T12:20:46.689Z,-145.39
2022-07-25T12:23:13.749Z,-145.39
2022-07-25T12:25:42.659Z,-145.39
2022-07-25T12:28:12.131Z,-145.39
2022-07-25T12:30:40.454Z,-145.39
2022-07-25T12:33:07.507Z,-145.39
2022-07-25T12:35:34.568Z,-145.39
2022-07-25T12:38:01.067Z,-145.39
2022-07-25T12:40:27.625Z,-145.39
2022-07-25T12:42:54.468Z,-145.39
2022-07-25T12:45:24.022Z,-145.39
2022-07-25T12:47:50.785Z,-145.39
2022-07-25T12:50:18.482Z,-145.39
2022-07-25T12:52:47.137Z,-145.39
2022-07-25T12:55:18.895Z,-145.39
2022-07-25T12:57:46.337Z,-145.39
2022-07-25T13:00:16.735Z,-145.39
2022-07-25T13:02:45.991Z,-145.39
2022-07-25T13:05:12.701Z,-145.39
2022-07-25T13:07:41.764Z,-145.39
2022-07-25T13:10:08.743Z,-145.39
2022-07-25T13:12:37.937Z,-145.39
2022-07-25T13:15:05.037Z,-145.39
2022-07-25T13:17:31.905Z,-145.39
2022-07-25T13:19:58.716Z,-145.39
2022-07-25T13:22:26.167Z,-145.39
2022-07-25T13:24:53.841Z,-145.39
2022-07-25T13:27:22.176Z,-145.39
2022-07-25T13:29:54.130Z,-145.39
2022-07-25T13:32:22.256Z,-145.39
2022-07-25T13:34:48.823Z,-145.39
2022-07-25T13:37:15.356Z,-145.39
2022-07-25T13:39:44.183Z,-145.39
2022-07-25T13:42:11.169Z,-145.39
2022-07-25T13:44:37.674Z,-145.39
2022-07-25T13:47:04.664Z,-145.39
2022-07-25T13:49:31.978Z,-145.39
2022-07-25T13:52:00.739Z,-145.39
2022-07-25T13:54:27.235Z,-145.39
2022-07-25T13:56:53.821Z,-145.39
2022-07-25T13:59:21.759Z,-145.39
2022-07-25T14:01:49.012Z,-145.39
2022-07-25T14:04:15.686Z,-145.39
2022-07-25T14:06:42.544Z,-145.39
2022-07-25T14:09:09.588Z,-145.39
2022-07-25T14:11:36.630Z,-145.39
2022-07-25T14:14:05.642Z,-145.39
2022-07-25T14:16:33.668Z,-145.39
2022-07-25T14:19:02.040Z,-145.39
2022-07-25T14:21:28.865Z,-145.39
2022-07-25T14:23:55.349Z,-145.39
2022-07-25T14:26:24.180Z,-145.39
2022-07-25T14:28:50.756Z,-145.39
2022-07-25T14:31:17.410Z,-145.39
2022-07-25T14:33:46.499Z,-145.39
2022-07-25T14:36:13.326Z,-145.39
2022-07-25T14:38:42.241Z,-145.39
2022-07-25T14:41:13.068Z,-145.39
2022-07-25T14:43:40.689Z,-145.39
2022-07-25T14:46:10.041Z,-145.39
2022-07-25T14:48:38.198Z,-145.39
2022-07-25T14:51:06.114Z,-145.39
2022-07-25T14:53:33.305Z,-145.39
2022-07-25T14:56:00.973Z,-145.39
2022-07-25T14:58:27.764Z,-145.39
2022-07-25T15:00:56.640Z,-145.39
2022-07-25T15:03:23.277Z,-145.39
2022-07-25T15:05:49.867Z,-145.39
2022-07-25T15:08:16.462Z,-145.39
2022-07-25T15:10:43.238Z,-145.39
2022-07-25T15:15:57.402Z,-145.39
2022-07-25T15:18:24.035Z,-145.39
2022-07-25T15:20:51.816Z,-145.39
2022-07-25T15:23:18.509Z,-145.39
2022-07-25T15:26:03.971Z,-145.39
2022-07-25T15:28:36.958Z,-145.39
2022-07-25T15:31:04.839Z,-145.39
2022-07-25T15:33:31.721Z,-145.39
2022-07-25T15:35:58.473Z,-145.39
2022-07-25T15:38:25.624Z,-145.39
2022-07-25T15:40:52.166Z,-145.39
2022-07-25T15:43:18.709Z,-145.39
2022-07-25T15:45:48.961Z,-145.39
2022-07-25T15:48:19.373Z,-145.39
2022-07-25T15:50:47.744Z,-145.39
2022-07-25T15:53:17.647Z,-145.39
2022-07-25T15:55:44.618Z,-145.39
2022-07-25T15:58:11.602Z,-145.39
2022-07-25T16:00:39.813Z,-145.39
2022-07-25T16:03:07.031Z,-145.39
2022-07-25T16:05:36.275Z,-145.39
2022-07-25T16:08:05.558Z,-145.39
2022-07-25T16:10:33.145Z,-145.39
2022-07-25T16:13:00.637Z,-145.39
2022-07-25T16:15:27.352Z,-145.39
2022-07-25T16:18:00.056Z,-145.39
2022-07-25T16:20:33.862Z,-145.39
2022-07-25T16:23:05.341Z,-145.39
2022-07-25T16:25:31.791Z,-145.39
2022-07-25T16:28:00.908Z,-145.39
2022-07-25T16:30:28.703Z,-145.39
2022-07-25T16:32:57.786Z,-145.39
2022-07-25T16:35:26.795Z,-145.39
2022-07-25T16:37:53.365Z,-145.39
2022-07-25T16:40:19.890Z,-145.39
2022-07-25T16:42:50.490Z,-145.39
2022-07-25T16:45:19.464Z,-145.39
2022-07-25T16:47:48.055Z,-145.39
2022-07-25T16:50:17.010Z,-145.39
2022-07-25T16:52:43.515Z,-145.39
2022-07-25T16:55:10.268Z,-145.39
2022-07-25T16:57:38.366Z,-145.39
2022-07-25T17:00:08.147Z,-145.39
2022-07-25T17:02:34.914Z,-145.39
2022-07-25T17:05:01.691Z,-145.39
2022-07-25T17:07:28.303Z,-145.39
2022-07-25T17:09:54.847Z,-145.39
2022-07-25T17:12:21.521Z,-145.39
2022-07-25T17:14:48.345Z,-145.39
2022-07-25T17:17:19.591Z,-145.39
2022-07-25T17:19:46.201Z,-145.39
2022-07-25T17:22:12.741Z,-145.39
2022-07-25T17:24:44.077Z,-145.39
2022-07-25T17:27:13.447Z,-145.39
2022-07-25T17:29:42.609Z,-145.39
2022-07-25T17:32:10.243Z,-145.39
2022-07-25T17:34:38.998Z,-145.39
2022-07-25T17:37:09.673Z,-145.39
2022-07-25T17:39:36.184Z,-145.39
2022-07-25T17:42:07.138Z,-145.39
2022-07-25T17:44:36.996Z,-145.39
2022-07-25T17:47:04.117Z,-145.39
2022-07-25T17:49:33.153Z,-145.39
2022-07-25T17:51:59.656Z,-145.39
2022-07-25T17:54:28.413Z,-145.39
2022-07-25T17:56:54.994Z,-145.39
2022-07-25T17:59:21.520Z,-145.39
2022-07-25T18:01:50.282Z,-145.39
2022-07-25T18:04:16.813Z,-145.39
2022-07-25T18:06:43.370Z,-145.39
2022-07-25T18:09:09.922Z,-145.39
2022-07-25T18:11:36.408Z,-145.39
2022-07-25T18:14:03.087Z,-145.39
2022-07-25T18:16:29.726Z,-145.39
2022-07-25T18:18:56.404Z,-145.39
2022-07-25T18:21:23.710Z,-145.39
2022-07-25T18:23:51.539Z,-145.39
2022-07-25T18:26:18.314Z,-145.39
2022-07-25T18:28:45.100Z,-145.39
2022-07-25T18:31:13.923Z,-145.39
2022-07-25T18:33:42.702Z,-145.39
2022-07-25T18:36:11.849Z,-145.39
2022-07-25T18:38:38.452Z,-145.39
2022-07-25T18:41:27.992Z,-145.39
2022-07-25T18:43:56.241Z,-145.39
2022-07-25T18:46:23.586Z,-145.39
2022-07-25T18:48:53.668Z,-145.39
2022-07-25T18:51:22.684Z,-145.39
2022-07-25T18:53:51.571Z,-145.39
2022-07-25T18:56:18.087Z,-145.39
2022-07-25T18:58:47.110Z,-145.39
2022-07-25T19:01:13.760Z,-145.39
2022-07-25T19:03:40.745Z,-145.39
2022-07-25T19:06:08.780Z,-145.39
2022-07-25T19:08:36.034Z,-145.39
2022-07-25T19:11:02.617Z,-145.39
2022-07-25T19:13:50.073Z,-145.39
2022-07-25T19:16:17.871Z,-145.39
2022-07-25T19:18:47.390Z,-145.39
2022-07-25T19:21:14.178Z,-145.39
2022-07-25T19:23:40.779Z,-145.39
2022-07-25T19:26:07.404Z,-145.39
2022-07-25T19:28:38.031Z,-145.39
2022-07-25T19:31:09.322Z,-145.39
2022-07-25T19:33:38.874Z,-145.39
2022-07-25T19:36:05.896Z,-145.39
2022-07-25T19:38:35.567Z,-145.39
2022-07-25T19:41:02.247Z,-145.39
2022-07-25T19:43:28.869Z,-145.39
2022-07-25T19:45:55.449Z,-145.39
2022-07-25T19:48:23.896Z,-145.39
2022-07-25T19:50:51.557Z,-145.39
2022-07-25T19:53:18.081Z,-145.39
2022-07-25T19:55:44.658Z,-145.39
2022-07-25T19:58:11.149Z,-145.39
2022-07-25T20:00:40.492Z,-145.39
2022-07-25T20:03:07.018Z,-145.39
2022-07-25T20:05:38.406Z,-145.39
2022-07-25T20:08:05.255Z,-145.39
2022-07-25T20:10:36.738Z,-145.39
2022-07-25T20:13:05.910Z,-145.39
2022-07-25T20:15:32.866Z,-145.39
2022-07-25T20:17:59.448Z,-145.39
2022-07-25T20:20:28.349Z,-145.39
2022-07-25T20:22:57.202Z,-145.39
2022-07-25T20:25:23.756Z,-145.39
2022-07-25T20:27:55.102Z,-145.39
2022-07-25T20:30:22.452Z,-145.39
2022-07-25T20:32:49.056Z,-145.39
2022-07-25T20:35:15.585Z,-145.39
2022-07-25T20:37:42.173Z,-145.39
2022-07-25T20:40:09.647Z,-145.39
2022-07-25T20:42:37.193Z,-145.39
2022-07-25T20:45:07.811Z,-145.39
2022-07-25T20:47:36.595Z,-145.39
2022-07-25T20:50:05.815Z,-145.39
2022-07-25T20:52:33.283Z,-145.39
2022-07-25T20:55:02.039Z,-145.39
2022-07-25T20:57:34.163Z,-145.39
2022-07-25T21:00:00.617Z,-145.39
2022-07-25T21:02:27.187Z,-145.39
2022-07-25T21:04:56.222Z,-145.39
2022-07-25T21:07:22.703Z,-145.39
2022-07-25T21:09:52.246Z,-145.39
2022-07-25T21:12:23.531Z,-145.39
2022-07-25T21:14:50.198Z,-145.39
2022-07-25T21:17:18.854Z,-145.39
2022-07-25T21:19:50.353Z,-145.39
2022-07-25T21:22:16.881Z,-145.39
2022-07-25T21:24:45.757Z,-145.39
2022-07-25T21:27:12.333Z,-145.39
2022-07-25T21:29:38.829Z,-145.39
2022-07-25T21:32:08.874Z,-145.39
2022-07-25T21:34:35.561Z,-145.39
2022-07-25T21:37:02.074Z,-145.39
2022-07-25T21:39:30.866Z,-145.39
2022-07-25T21:41:57.476Z,-145.39
2022-07-25T21:44:26.358Z,-145.39
2022-07-25T21:46:55.389Z,-145.39
2022-07-25T21:49:41.253Z,-145.39
2022-07-25T21:52:09.254Z,-145.39
2022-07-25T21:54:41.211Z,-145.39
2022-07-25T21:57:13.990Z,-145.39
2022-07-25T21:59:45.046Z,-145.39
2022-07-25T22:02:11.838Z,-145.39
2022-07-25T22:04:38.376Z,-145.39
2022-07-25T22:07:06.053Z,-145.39
2022-07-25T22:09:32.626Z,-145.39
2022-07-25T22:11:59.428Z,-145.39
2022-07-25T22:14:25.946Z,-145.39
2022-07-25T22:16:55.240Z,-145.39
2022-07-25T22:19:22.677Z,-145.39
2022-07-25T22:21:50.352Z,-145.39
2022-07-25T22:24:16.940Z,-145.39
2022-07-25T22:26:43.625Z,-145.39
2022-07-25T22:29:10.889Z,-145.39
2022-07-25T22:31:39.062Z,-145.39
2022-07-25T22:34:08.548Z,-145.39
2022-07-25T22:36:35.300Z,-145.39
2022-07-25T22:39:01.855Z,-145.39
2022-07-25T22:41:28.481Z,-145.39
2022-07-25T22:43:57.825Z,-145.39
2022-07-25T22:46:27.855Z,-145.39
2022-07-25T22:48:54.454Z,-145.39
2022-07-25T22:51:21.180Z,-145.39
2022-07-25T22:53:47.736Z,-145.39
2022-07-25T22:56:14.383Z,-145.39
2022-07-25T22:58:40.902Z,-145.39
2022-07-25T23:01:07.924Z,-145.39
2022-07-25T23:03:34.569Z,-145.39
2022-07-25T23:06:01.261Z,-145.39
2022-07-25T23:08:27.752Z,-145.39
2022-07-25T23:10:54.331Z,-145.39
2022-07-25T23:13:21.025Z,-145.39
2022-07-25T23:15:50.109Z,-145.39
2022-07-25T23:18:18.010Z,-145.39
2022-07-25T23:20:47.005Z,-145.39
2022-07-25T23:23:13.659Z,-145.39
2022-07-25T23:25:40.407Z,-145.39
2022-07-25T23:28:09.680Z,-145.39
2022-07-25T23:30:40.286Z,-145.39
2022-07-25T23:33:07.860Z,-145.39
2022-07-25T23:35:34.688Z,-145.39
2022-07-25T23:38:01.201Z,-145.39
2022-07-25T23:40:27.864Z,-145.39
2022-07-25T23:42:54.494Z,-145.39
2022-07-25T23:45:22.004Z,-145.39
2022-07-25T23:47:51.494Z,-145.39
2022-07-25T23:50:21.858Z,-145.39
2022-07-25T23:52:48.338Z,-145.39
2022-07-25T23:55:14.847Z,-145.39
2022-07-25T23:57:41.449Z,-145.39
